createdAt,value
2018-04-19T00:01:58.960Z,22.82
2018-04-19T00:04:03.166Z,22.90
2018-04-19T00:06:07.740Z,22.80
2018-04-19T00:08:12.452Z,22.84
2018-04-19T00:10:18.420Z,23.04
2018-04-19T00:12:23.969Z,22.64
2018-04-19T00:14:27.801Z,22.74
2018-04-19T00:16:32.081Z,22.75
2018-04-19T00:18:36.247Z,22.58
2018-04-19T00:20:40.474Z,22.88
2018-04-19T00:22:44.448Z,22.80
2018-04-19T00:24:48.784Z,22.65
2018-04-19T00:26:53.076Z,22.77
2018-04-19T00:28:57.013Z,22.64
2018-04-19T00:31:01.271Z,22.77
2018-04-19T00:33:06.099Z,22.68
2018-04-19T00:35:11.225Z,22.30
2018-04-19T00:37:15.893Z,22.29
2018-04-19T00:39:22.087Z,22.22
2018-04-19T00:41:26.354Z,22.09
2018-04-19T00:43:30.552Z,22.25
2018-04-19T00:45:35.059Z,22.27
2018-04-19T00:47:39.221Z,22.13
2018-04-19T00:49:43.693Z,22.16
2018-04-19T00:51:48.270Z,22.35
2018-04-19T00:53:52.280Z,22.44
2018-04-19T00:55:56.336Z,22.51
2018-04-19T00:58:00.486Z,22.49
2018-04-19T01:00:05.134Z,21.88
2018-04-19T01:02:10.561Z,21.63
2018-04-19T01:04:15.493Z,22.01
2018-04-19T01:06:23.518Z,22.07
2018-04-19T01:08:29.589Z,22.14
2018-04-19T01:10:34.009Z,22.00
2018-04-19T01:12:38.221Z,21.84
2018-04-19T01:14:42.485Z,22.10
2018-04-19T01:16:46.774Z,21.92
2018-04-19T01:18:51.443Z,22.06
2018-04-19T01:20:55.712Z,22.13
2018-04-19T01:22:59.986Z,22.09
2018-04-19T01:25:04.733Z,22.21
2018-04-19T01:27:09.476Z,22.31
2018-04-19T01:29:13.921Z,22.19
2018-04-19T01:31:19.427Z,22.36
2018-04-19T01:33:25.441Z,22.09
2018-04-19T01:35:38.089Z,22.13
2018-04-19T01:37:42.539Z,22.17
2018-04-19T01:39:46.732Z,22.07
2018-04-19T01:41:50.987Z,22.23
2018-04-19T01:43:55.470Z,22.11
2018-04-19T01:45:59.627Z,22.11
2018-04-19T01:48:03.664Z,22.04
2018-04-19T01:50:09.224Z,22.49
2018-04-19T01:52:14.180Z,22.33
2018-04-19T01:54:19.913Z,21.49
2018-04-19T01:56:24.672Z,21.29
2018-04-19T01:58:28.739Z,21.13
2018-04-19T02:00:33.109Z,21.20
2018-04-19T02:02:37.304Z,20.83
2018-04-19T02:04:41.682Z,21.32
2018-04-19T02:06:45.914Z,21.13
2018-04-19T02:08:49.670Z,20.85
2018-04-19T02:10:54.177Z,20.84
2018-04-19T02:12:58.540Z,20.71
2018-04-19T02:15:02.556Z,21.07
2018-04-19T02:17:07.316Z,20.98
2018-04-19T02:19:12.631Z,21.32
2018-04-19T02:21:20.736Z,21.06
2018-04-19T02:23:25.188Z,21.15
2018-04-19T02:25:29.812Z,21.43
2018-04-19T02:27:34.223Z,21.49
2018-04-19T02:29:38.313Z,21.79
2018-04-19T02:31:42.543Z,21.74
2018-04-19T02:33:47.063Z,21.30
2018-04-19T02:35:51.135Z,21.80
2018-04-19T02:37:55.340Z,21.60
2018-04-19T02:40:00.071Z,21.55
2018-04-19T02:42:04.541Z,21.59
2018-04-19T02:44:09.016Z,21.81
2018-04-19T02:46:17.850Z,21.77
2018-04-19T02:48:24.028Z,21.78
2018-04-19T02:50:29.014Z,21.60
2018-04-19T02:52:33.042Z,21.73
2018-04-19T02:54:36.921Z,21.59
2018-04-19T02:56:41.214Z,21.31
2018-04-19T02:58:45.425Z,21.30
2018-04-19T03:00:49.445Z,21.37
2018-04-19T03:02:53.409Z,21.73
2018-04-19T03:04:57.987Z,21.42
2018-04-19T03:07:02.195Z,21.30
2018-04-19T03:09:08.104Z,20.87
2018-04-19T03:11:12.950Z,20.72
2018-04-19T03:13:19.155Z,20.93
2018-04-19T03:15:24.847Z,20.40
2018-04-19T03:17:29.071Z,20.30
2018-04-19T03:19:33.041Z,20.83
2018-04-19T03:21:36.953Z,20.68
2018-04-19T03:23:40.837Z,21.15
2018-04-19T03:25:45.003Z,21.24
2018-04-19T03:27:49.424Z,20.67
2018-04-19T03:29:53.872Z,20.83
2018-04-19T03:31:58.021Z,21.09
2018-04-19T03:34:01.886Z,20.95
2018-04-19T03:36:06.562Z,20.99
2018-04-19T03:38:11.383Z,20.79
2018-04-19T03:40:16.322Z,21.33
2018-04-19T03:42:21.930Z,21.40
2018-04-19T03:44:27.228Z,21.34
2018-04-19T03:46:31.174Z,21.52
2018-04-19T03:48:35.150Z,21.30
2018-04-19T03:50:39.506Z,21.15
2018-04-19T03:52:43.732Z,21.03
2018-04-19T03:54:47.693Z,21.21
2018-04-19T03:56:51.858Z,21.28
2018-04-19T03:58:55.714Z,20.92
2018-04-19T04:00:59.648Z,20.44
2018-04-19T04:03:03.845Z,20.51
2018-04-19T04:05:08.526Z,21.09
2018-04-19T04:07:13.122Z,21.10
2018-04-19T04:09:19.834Z,21.32
2018-04-19T04:11:24.424Z,21.29
2018-04-19T04:13:28.292Z,21.23
2018-04-19T04:15:32.498Z,21.13
2018-04-19T04:17:47.298Z,21.21
2018-04-19T04:20:05.463Z,21.01
2018-04-19T04:23:23.519Z,20.92
2018-04-19T04:25:27.416Z,21.21
2018-04-19T04:27:31.577Z,21.38
2018-04-19T04:29:35.485Z,20.98
2018-04-19T04:31:39.602Z,20.92
2018-04-19T04:33:43.791Z,20.80
2018-04-19T04:35:47.827Z,21.05
2018-04-19T04:37:51.858Z,21.08
2018-04-19T04:39:56.286Z,20.65
2018-04-19T04:42:00.174Z,20.93
2018-04-19T04:44:04.190Z,20.90
2018-04-19T04:46:12.440Z,20.94
2018-04-19T04:48:17.082Z,21.17
2018-04-19T04:50:23.620Z,20.89
2018-04-19T04:52:28.100Z,21.07
2018-04-19T04:54:32.204Z,21.31
2018-04-19T04:56:36.521Z,21.41
2018-04-19T04:58:40.669Z,21.34
2018-04-19T05:00:44.705Z,20.97
2018-04-19T05:02:48.910Z,20.89
2018-04-19T05:04:54.512Z,21.28
2018-04-19T05:06:58.545Z,20.98
2018-04-19T05:09:02.474Z,20.98
2018-04-19T05:11:08.270Z,20.92
2018-04-19T05:13:12.728Z,21.20
2018-04-19T05:15:17.507Z,21.26
2018-04-19T05:17:23.406Z,21.38
2018-04-19T05:19:27.302Z,21.20
2018-04-19T05:21:31.183Z,20.95
2018-04-19T05:23:35.716Z,21.05
2018-04-19T05:25:40.239Z,21.09
2018-04-19T05:27:44.112Z,20.65
2018-04-19T05:29:48.432Z,20.91
2018-04-19T05:31:52.254Z,20.54
2018-04-19T05:33:56.098Z,20.77
2018-04-19T05:36:00.416Z,20.95
2018-04-19T05:38:04.736Z,20.89
2018-04-19T05:40:17.009Z,21.27
2018-04-19T05:42:23.190Z,21.58
2018-04-19T05:44:27.056Z,21.56
2018-04-19T05:46:31.280Z,21.63
2018-04-19T05:48:39.576Z,21.53
2018-04-19T05:50:43.543Z,21.70
2018-04-19T05:52:47.365Z,21.54
2018-04-19T05:54:51.947Z,21.40
2018-04-19T05:56:55.968Z,21.11
2018-04-19T05:59:00.483Z,20.99
2018-04-19T06:01:05.150Z,20.92
2018-04-19T06:03:10.436Z,20.96
2018-04-19T06:05:17.982Z,21.14
2018-04-19T06:07:25.134Z,21.29
2018-04-19T06:09:29.169Z,21.34
2018-04-19T06:11:34.461Z,21.38
2018-04-19T06:13:39.474Z,21.87
2018-04-19T06:15:44.384Z,22.26
2018-04-19T06:17:49.329Z,22.47
2018-04-19T06:19:53.912Z,22.16
2018-04-19T06:21:58.128Z,22.16
2018-04-19T06:24:02.008Z,21.78
2018-04-19T06:26:06.977Z,21.28
2018-04-19T06:28:12.296Z,21.61
2018-04-19T06:30:16.856Z,21.76
2018-04-19T06:32:21.835Z,22.08
2018-04-19T06:34:27.232Z,22.27
2018-04-19T06:36:31.566Z,22.57
2018-04-19T06:38:35.764Z,22.73
2018-04-19T06:40:39.943Z,22.58
2018-04-19T06:42:43.827Z,22.67
2018-04-19T06:44:48.114Z,22.35
2018-04-19T06:46:52.764Z,22.69
2018-04-19T06:48:57.058Z,22.82
2018-04-19T06:51:00.995Z,22.64
2018-04-19T06:53:06.244Z,22.49
2018-04-19T06:55:11.769Z,22.34
2018-04-19T06:57:18.933Z,22.61
2018-04-19T06:59:24.353Z,22.23
2018-04-19T07:01:29.064Z,22.66
2018-04-19T07:03:33.281Z,22.97
2018-04-19T07:05:37.152Z,22.75
2018-04-19T07:07:41.385Z,22.67
2018-04-19T07:09:45.506Z,22.58
2018-04-19T07:11:50.668Z,22.56
2018-04-19T07:13:55.045Z,22.28
2018-04-19T07:15:58.988Z,22.77
2018-04-19T07:18:02.904Z,22.76
2018-04-19T07:20:08.808Z,23.02
2018-04-19T07:22:14.841Z,22.71
2018-04-19T07:24:20.825Z,22.60
2018-04-19T07:26:25.865Z,22.76
2018-04-19T07:28:30.133Z,22.65
2018-04-19T07:30:34.113Z,22.93
2018-04-19T07:32:38.493Z,23.21
2018-04-19T07:34:42.601Z,23.22
2018-04-19T07:36:47.399Z,23.22
2018-04-19T07:38:52.419Z,23.33
2018-04-19T07:40:56.840Z,23.29
2018-04-19T07:43:01.989Z,23.16
2018-04-19T07:45:08.771Z,23.05
2018-04-19T07:47:13.408Z,23.21
2018-04-19T07:49:20.935Z,23.30
2018-04-19T07:51:26.678Z,23.35
2018-04-19T07:53:30.609Z,22.91
2018-04-19T07:55:34.971Z,23.00
2018-04-19T07:57:39.279Z,23.04
2018-04-19T07:59:43.914Z,22.96
2018-04-19T08:01:48.405Z,23.01
2018-04-19T08:03:52.950Z,22.81
2018-04-19T08:05:57.528Z,22.99
2018-04-19T08:08:01.507Z,22.80
2018-04-19T08:10:06.486Z,22.72
2018-04-19T08:12:11.951Z,22.88
2018-04-19T08:14:17.489Z,22.84
2018-04-19T08:16:25.218Z,22.93
2018-04-19T08:18:29.478Z,23.34
2018-04-19T08:20:33.807Z,23.21
2018-04-19T08:22:38.270Z,23.17
2018-04-19T08:24:42.284Z,23.06
2018-04-19T08:26:47.102Z,23.06
2018-04-19T08:28:53.038Z,23.30
2018-04-19T08:30:59.846Z,23.62
2018-04-19T08:33:05.372Z,23.70
2018-04-19T08:35:10.386Z,23.63
2018-04-19T08:37:18.333Z,23.47
2018-04-19T08:39:24.436Z,23.58
2018-04-19T08:41:30.205Z,23.60
2018-04-19T08:43:35.199Z,23.63
2018-04-19T08:45:39.206Z,23.73
2018-04-19T08:47:43.595Z,23.63
2018-04-19T08:49:48.076Z,23.68
2018-04-19T08:51:52.318Z,23.91
2018-04-19T08:53:56.897Z,23.81
2018-04-19T08:56:01.458Z,23.59
2018-04-19T08:58:05.983Z,23.51
2018-04-19T09:00:12.616Z,23.63
2018-04-19T09:02:22.018Z,23.75
2018-04-19T09:04:31.284Z,23.77
2018-04-19T09:06:35.975Z,23.91
2018-04-19T09:08:40.346Z,23.67
2018-04-19T09:10:44.229Z,23.78
2018-04-19T09:12:48.533Z,24.03
2018-04-19T09:14:52.452Z,23.99
2018-04-19T09:16:57.980Z,23.82
2018-04-19T09:19:03.696Z,23.90
2018-04-19T09:21:10.755Z,24.04
2018-04-19T09:23:19.109Z,24.24
2018-04-19T09:25:24.331Z,24.27
2018-04-19T09:27:28.293Z,24.24
2018-04-19T09:29:32.406Z,24.30
2018-04-19T09:31:36.985Z,24.36
2018-04-19T09:33:41.009Z,24.31
2018-04-19T09:35:45.162Z,24.40
2018-04-19T09:37:49.628Z,24.36
2018-04-19T09:39:53.529Z,24.52
2018-04-19T09:41:57.465Z,24.41
2018-04-19T09:44:01.737Z,24.44
2018-04-19T09:46:07.350Z,24.44
2018-04-19T09:48:13.567Z,24.53
2018-04-19T09:50:21.935Z,24.49
2018-04-19T09:52:26.043Z,24.61
2018-04-19T09:54:30.554Z,24.68
2018-04-19T09:56:35.942Z,24.55
2018-04-19T09:58:40.163Z,24.67
2018-04-19T10:00:45.838Z,24.66
2018-04-19T10:02:50.669Z,24.74
2018-04-19T10:05:00.173Z,24.81
2018-04-19T10:07:04.118Z,24.83
2018-04-19T10:09:08.468Z,24.91
2018-04-19T10:11:13.364Z,24.94
2018-04-19T10:13:18.090Z,24.90
2018-04-19T10:15:23.993Z,24.93
2018-04-19T10:17:28.088Z,24.96
2018-04-19T10:19:32.059Z,25.01
2018-04-19T10:21:36.337Z,25.05
2018-04-19T10:23:41.053Z,25.13
2018-04-19T10:27:54.652Z,25.04
2018-04-19T10:29:58.569Z,25.18
2018-04-19T10:32:02.582Z,25.13
2018-04-19T10:34:07.706Z,25.20
2018-04-19T10:36:14.237Z,25.22
2018-04-19T10:38:19.837Z,25.21
2018-04-19T10:40:24.552Z,25.32
2018-04-19T10:42:28.658Z,25.25
2018-04-19T10:44:32.874Z,25.28
2018-04-19T10:46:37.744Z,25.37
2018-04-19T10:48:41.814Z,25.41
2018-04-19T10:50:45.752Z,25.45
2018-04-19T10:52:49.975Z,25.46
2018-04-19T10:54:53.904Z,25.53
2018-04-19T10:56:57.834Z,25.55
2018-04-19T10:59:02.189Z,25.56
2018-04-19T11:01:07.333Z,25.51
2018-04-19T11:03:13.150Z,25.60
2018-04-19T11:05:18.926Z,25.59
2018-04-19T11:07:23.980Z,25.60
2018-04-19T11:09:28.307Z,25.61
2018-04-19T11:11:32.765Z,25.57
2018-04-19T11:13:36.878Z,25.66
2018-04-19T11:15:40.789Z,25.68
2018-04-19T11:17:45.257Z,25.75
2018-04-19T11:19:49.532Z,25.75
2018-04-19T11:21:53.487Z,25.79
2018-04-19T11:23:58.016Z,25.82
2018-04-19T11:26:01.984Z,25.82
2018-04-19T11:28:07.801Z,25.81
2018-04-19T11:30:14.209Z,25.84
2018-04-19T11:32:22.510Z,25.84
2018-04-19T11:34:27.450Z,25.83
2018-04-19T11:36:34.054Z,25.85
2018-04-19T11:38:38.581Z,25.87
2018-04-19T11:40:42.938Z,25.92
2018-04-19T11:42:47.616Z,25.93
2018-04-19T11:44:51.664Z,25.93
2018-04-19T11:46:55.633Z,25.95
2018-04-19T11:48:59.945Z,26.02
2018-04-19T11:51:06.073Z,26.00
2018-04-19T11:53:11.960Z,26.04
2018-04-19T11:55:17.335Z,26.04
2018-04-19T11:57:23.160Z,26.10
2018-04-19T11:59:27.505Z,26.06
2018-04-19T12:01:32.667Z,26.10
2018-04-19T12:03:36.842Z,26.12
2018-04-19T12:05:40.750Z,26.13
2018-04-19T12:07:45.145Z,26.19
2018-04-19T12:09:50.418Z,26.40
2018-04-19T12:11:54.400Z,28.75
2018-04-19T12:13:58.679Z,30.33
2018-04-19T12:16:02.745Z,31.06
2018-04-19T12:18:08.511Z,31.67
2018-04-19T12:20:13.470Z,31.92
2018-04-19T12:22:18.483Z,32.16
2018-04-19T12:24:23.150Z,32.61
2018-04-19T12:26:27.867Z,32.61
2018-04-19T12:28:33.866Z,32.90
2018-04-19T12:30:39.281Z,33.23
2018-04-19T12:32:43.993Z,33.49
2018-04-19T12:34:50.196Z,33.63
2018-04-19T12:36:54.905Z,33.81
2018-04-19T12:38:59.694Z,34.16
2018-04-19T12:41:03.833Z,34.25
2018-04-19T12:43:09.271Z,34.48
2018-04-19T12:45:15.437Z,34.61
2018-04-19T12:47:21.639Z,34.51
2018-04-19T12:49:26.772Z,34.77
2018-04-19T12:51:32.275Z,34.91
2018-04-19T12:53:36.649Z,35.08
2018-04-19T12:55:40.924Z,35.15
2018-04-19T12:57:45.272Z,35.12
2018-04-19T12:59:49.563Z,35.32
2018-04-19T13:01:53.816Z,35.27
2018-04-19T13:03:58.181Z,35.23
2018-04-19T13:06:02.657Z,35.44
2018-04-19T13:08:07.973Z,35.41
2018-04-19T13:10:13.047Z,35.41
2018-04-19T13:12:19.344Z,35.40
2018-04-19T13:14:25.192Z,35.24
2018-04-19T13:16:29.474Z,35.23
2018-04-19T13:18:35.430Z,34.98
2018-04-19T13:20:39.596Z,34.67
2018-04-19T13:22:43.781Z,34.19
2018-04-19T13:24:47.900Z,34.19
2018-04-19T13:26:51.902Z,34.01
2018-04-19T13:28:56.593Z,33.67
2018-04-19T13:31:00.758Z,33.33
2018-04-19T13:33:04.938Z,32.92
2018-04-19T13:35:10.478Z,32.44
2018-04-19T13:37:14.931Z,32.03
2018-04-19T13:39:20.981Z,31.57
2018-04-19T13:41:25.785Z,31.40
2018-04-19T13:43:29.766Z,31.13
2018-04-19T13:45:35.544Z,30.97
2018-04-19T13:47:39.933Z,30.84
2018-04-19T13:49:44.473Z,30.79
2018-04-19T13:51:48.448Z,30.88
2018-04-19T13:53:52.986Z,30.79
2018-04-19T13:55:57.232Z,30.68
2018-04-19T13:58:01.099Z,30.64
2018-04-19T14:00:05.360Z,30.63
2018-04-19T14:02:12.315Z,30.66
2018-04-19T14:04:18.274Z,30.61
2018-04-19T14:06:23.521Z,30.50
2018-04-19T14:08:27.568Z,30.52
2018-04-19T14:10:33.027Z,30.54
2018-04-19T14:12:37.380Z,30.51
2018-04-19T14:14:41.294Z,30.49
2018-04-19T14:16:45.254Z,30.49
2018-04-19T14:18:49.419Z,30.50
2018-04-19T14:20:53.442Z,30.47
2018-04-19T14:22:57.298Z,30.46
2018-04-19T14:25:01.506Z,30.47
2018-04-19T14:27:06.094Z,30.52
2018-04-19T14:29:11.265Z,30.46
2018-04-19T14:31:16.400Z,30.44
2018-04-19T14:33:21.941Z,30.49
2018-04-19T14:35:26.044Z,30.45
2018-04-19T14:37:30.208Z,30.51
2018-04-19T14:39:35.169Z,30.49
2018-04-19T14:41:39.196Z,30.46
2018-04-19T14:43:47.841Z,30.51
2018-04-19T14:45:51.874Z,30.54
2018-04-19T14:47:55.809Z,30.48
2018-04-19T14:49:59.982Z,30.50
2018-04-19T14:52:04.321Z,30.50
2018-04-19T14:54:08.249Z,30.49
2018-04-19T14:56:14.100Z,30.54
2018-04-19T14:58:21.027Z,30.49
2018-04-19T15:00:25.671Z,30.46
2018-04-19T15:02:30.093Z,30.53
2018-04-19T15:04:35.533Z,30.56
2018-04-19T15:06:39.376Z,30.51
2018-04-19T15:08:45.266Z,30.54
2018-04-19T15:10:49.197Z,30.51
2018-04-19T15:12:53.121Z,30.56
2018-04-19T15:14:57.361Z,30.51
2018-04-19T15:17:01.272Z,30.54
2018-04-19T15:19:08.769Z,30.51
2018-04-19T15:21:13.708Z,30.57
2018-04-19T15:23:18.947Z,30.60
2018-04-19T15:25:23.987Z,30.64
2018-04-19T15:27:28.898Z,30.64
2018-04-19T15:29:37.399Z,30.64
2018-04-19T15:31:41.645Z,30.62
2018-04-19T15:33:46.513Z,30.61
2018-04-19T15:35:50.474Z,30.64
2018-04-19T15:37:54.436Z,30.61
2018-04-19T15:39:58.815Z,30.50
2018-04-19T15:42:02.864Z,30.61
2018-04-19T15:44:09.226Z,30.58
2018-04-19T15:46:19.104Z,30.50
2018-04-19T15:48:23.609Z,30.43
2018-04-19T15:50:27.551Z,30.46
2018-04-19T15:52:34.090Z,30.44
2018-04-19T15:54:37.973Z,30.39
2018-04-19T15:56:41.856Z,30.40
2018-04-19T15:58:46.171Z,30.37
2018-04-19T16:00:50.053Z,30.30
2018-04-19T16:02:54.029Z,30.32
2018-04-19T16:04:58.308Z,30.27
2018-04-19T16:07:02.656Z,30.31
2018-04-19T16:09:09.714Z,30.33
2018-04-19T16:11:15.632Z,30.27
2018-04-19T16:13:20.742Z,30.27
2018-04-19T16:15:25.149Z,30.31
2018-04-19T16:17:29.649Z,30.33
2018-04-19T16:19:35.645Z,30.31
2018-04-19T16:21:39.517Z,30.29
2018-04-19T16:23:43.912Z,30.23
2018-04-19T16:25:47.849Z,30.22
2018-04-19T16:27:52.096Z,30.13
2018-04-19T16:29:56.377Z,30.18
2018-04-19T16:32:00.365Z,30.18
2018-04-19T16:34:23.353Z,30.15
2018-04-19T16:36:28.404Z,30.13
2018-04-19T16:38:33.982Z,30.12
2018-04-19T16:40:37.797Z,30.09
2018-04-19T16:42:42.066Z,30.09
2018-04-19T16:44:46.064Z,30.07
2018-04-19T16:46:49.929Z,30.08
2018-04-19T16:48:54.080Z,30.02
2018-04-19T16:50:57.941Z,29.94
2018-04-19T16:53:02.232Z,30.03
2018-04-19T16:55:06.872Z,29.99
2018-04-19T16:57:11.663Z,29.94
2018-04-19T16:59:17.341Z,29.96
2018-04-19T17:01:22.582Z,29.92
2018-04-19T17:03:26.444Z,29.81
2018-04-19T17:05:30.377Z,29.74
2018-04-19T17:07:38.063Z,29.68
2018-04-19T17:09:41.989Z,29.61
2018-04-19T17:11:45.858Z,29.50
2018-04-19T17:13:49.972Z,29.49
2018-04-19T17:15:54.002Z,29.42
2018-04-19T17:17:57.954Z,29.39
2018-04-19T17:20:02.484Z,29.37
2018-04-19T17:22:07.236Z,29.27
2018-04-19T17:24:12.046Z,29.20
2018-04-19T17:26:18.050Z,29.12
2018-04-19T17:28:23.976Z,29.05
2018-04-19T17:30:27.867Z,28.96
2018-04-19T17:32:33.962Z,28.81
2018-04-19T17:34:38.022Z,28.81
2018-04-19T17:36:42.330Z,28.65
2018-04-19T17:38:47.966Z,28.55
2018-04-19T17:40:51.977Z,28.25
2018-04-19T17:42:56.101Z,28.17
2018-04-19T17:45:00.406Z,28.05
2018-04-19T17:47:04.732Z,28.18
2018-04-19T17:49:09.431Z,27.76
2018-04-19T17:51:16.772Z,27.85
2018-04-19T17:53:22.528Z,28.07
2018-04-19T17:55:34.297Z,27.74
2018-04-19T17:57:38.921Z,27.39
2018-04-19T17:59:42.809Z,27.26
2018-04-19T18:01:46.644Z,27.12
2018-04-19T18:03:50.814Z,27.13
2018-04-19T18:05:54.696Z,26.72
2018-04-19T18:07:58.540Z,26.71
2018-04-19T18:10:02.750Z,26.68
2018-04-19T18:12:07.905Z,26.58
2018-04-19T18:14:13.527Z,26.34
2018-04-19T18:16:19.413Z,26.19
2018-04-19T18:18:24.590Z,26.20
2018-04-19T18:20:28.511Z,25.96
2018-04-19T18:22:33.764Z,25.94
2018-04-19T18:24:37.805Z,25.80
2018-04-19T18:26:41.718Z,25.73
2018-04-19T18:28:46.919Z,25.79
2018-04-19T18:30:50.752Z,25.66
2018-04-19T18:32:54.600Z,25.53
2018-04-19T18:34:58.888Z,25.45
2018-04-19T18:37:04.248Z,25.05
2018-04-19T18:39:09.135Z,25.02
2018-04-19T18:41:14.322Z,25.41
2018-04-19T18:43:21.173Z,25.16
2018-04-19T18:45:25.321Z,25.14
2018-04-19T18:47:30.204Z,25.05
2018-04-19T18:49:35.692Z,25.14
2018-04-19T18:51:39.756Z,25.05
2018-04-19T18:53:43.945Z,25.15
2018-04-19T18:55:47.814Z,25.20
2018-04-19T18:57:51.686Z,25.11
2018-04-19T18:59:55.996Z,25.21
2018-04-19T19:02:00.059Z,25.00
2018-04-19T19:04:04.794Z,25.08
2018-04-19T19:06:10.388Z,25.08
2018-04-19T19:08:15.653Z,24.59
2018-04-19T19:10:21.410Z,24.94
2018-04-19T19:12:26.096Z,24.66
2018-04-19T19:14:34.788Z,24.72
2018-04-19T19:16:38.819Z,24.68
2018-04-19T19:18:53.969Z,24.60
2018-04-19T19:20:57.949Z,24.68
2018-04-19T19:23:02.274Z,24.54
2018-04-19T19:25:09.557Z,24.36
2018-04-19T19:27:15.403Z,24.49
2018-04-19T19:29:20.693Z,24.31
2018-04-19T19:31:25.043Z,24.50
2018-04-19T19:33:29.022Z,24.43
2018-04-19T19:35:37.438Z,24.52
2018-04-19T19:37:41.669Z,24.23
2018-04-19T19:39:45.541Z,24.14
2018-04-19T19:41:49.488Z,24.24
2018-04-19T19:43:53.638Z,24.13
2018-04-19T19:45:57.535Z,24.13
2018-04-19T19:48:01.545Z,24.34
2018-04-19T19:50:07.717Z,24.11
2018-04-19T19:52:12.656Z,24.15
2018-04-19T19:54:17.560Z,23.93
2018-04-19T19:56:24.214Z,24.08
2018-04-19T19:58:28.576Z,24.11
2018-04-19T20:00:32.559Z,23.95
2018-04-19T20:02:36.712Z,24.00
2018-04-19T20:04:40.638Z,24.02
2018-04-19T20:06:44.670Z,24.19
2018-04-19T20:08:48.929Z,24.15
2018-04-19T20:10:53.137Z,23.85
2018-04-19T20:12:57.029Z,24.17
2018-04-19T20:15:01.896Z,24.03
2018-04-19T20:17:07.904Z,23.96
2018-04-19T20:19:12.533Z,24.02
2018-04-19T20:21:17.836Z,24.03
2018-04-19T20:23:22.795Z,24.03
2018-04-19T20:25:27.159Z,23.95
2018-04-19T20:27:35.201Z,24.02
2018-04-19T20:29:39.401Z,24.00
2018-04-19T20:31:43.451Z,24.20
2018-04-19T20:33:47.817Z,24.19
2018-04-19T20:35:51.868Z,24.03
2018-04-19T20:37:55.893Z,24.20
2018-04-19T20:40:00.452Z,24.13
2018-04-19T20:42:05.747Z,23.90
2018-04-19T20:44:10.409Z,23.84
2018-04-19T20:46:15.834Z,23.94
2018-04-19T20:48:20.569Z,23.68
2018-04-19T20:50:25.803Z,24.15
2018-04-19T20:52:29.969Z,24.30
2018-04-19T20:54:36.441Z,24.20
2018-04-19T20:56:40.589Z,23.95
2018-04-19T20:58:44.995Z,23.79
2018-04-19T21:00:48.856Z,23.96
2018-04-19T21:02:52.868Z,24.20
2018-04-19T21:04:58.131Z,24.47
2018-04-19T21:07:02.197Z,24.46
2018-04-19T21:09:07.845Z,24.48
2018-04-19T21:11:12.797Z,24.42
2018-04-19T21:13:17.595Z,24.43
2018-04-19T21:15:23.934Z,24.26
2018-04-19T21:17:28.127Z,24.22
2018-04-19T21:19:33.677Z,24.19
2018-04-19T21:21:37.597Z,23.95
2018-04-19T21:23:41.869Z,24.14
2018-04-19T21:25:45.956Z,24.13
2018-04-19T21:27:49.884Z,24.10
2018-04-19T21:29:54.265Z,24.08
2018-04-19T21:31:58.345Z,23.90
2018-04-19T21:34:02.551Z,23.96
2018-04-19T21:36:09.029Z,23.97
2018-04-19T21:38:13.509Z,24.05
2018-04-19T21:40:19.035Z,23.68
2018-04-19T21:42:24.955Z,23.79
2018-04-19T21:44:28.908Z,23.65
2018-04-19T21:46:36.636Z,23.68
2018-04-19T21:48:40.817Z,23.73
2018-04-19T21:50:44.660Z,24.02
2018-04-19T21:52:48.512Z,24.01
2018-04-19T21:54:52.865Z,23.76
2018-04-19T21:56:56.921Z,23.97
2018-04-19T21:59:00.836Z,23.98
2018-04-19T22:01:08.439Z,23.91
2018-04-19T22:03:13.696Z,24.04
2018-04-19T22:05:19.934Z,23.91
2018-04-19T22:07:25.352Z,23.84
2018-04-19T22:09:29.543Z,23.81
2018-04-19T22:11:37.579Z,23.81
2018-04-19T22:13:42.599Z,23.85
2018-04-19T22:15:46.814Z,24.03
2018-04-19T22:17:51.839Z,24.03
2018-04-19T22:19:56.220Z,23.80
2018-04-19T22:22:00.109Z,23.68
2018-04-19T22:24:05.805Z,23.72
2018-04-19T22:26:10.727Z,23.52
2018-04-19T22:28:15.839Z,23.71
2018-04-19T22:30:21.211Z,23.88
2018-04-19T22:32:25.593Z,23.88
2018-04-19T22:34:29.510Z,23.82
2018-04-19T22:36:34.716Z,23.86
2018-04-19T22:38:39.068Z,23.78
2018-04-19T22:40:42.924Z,23.56
2018-04-19T22:42:46.977Z,23.73
2018-04-19T22:44:51.493Z,23.88
2018-04-19T22:46:55.415Z,23.91
2018-04-19T22:48:59.328Z,23.84
2018-04-19T22:51:03.893Z,23.75
2018-04-19T22:53:09.283Z,23.78
2018-04-19T22:55:15.437Z,23.88
2018-04-19T22:57:23.352Z,23.84
2018-04-19T22:59:27.500Z,23.63
2018-04-19T23:01:32.342Z,23.69
2018-04-19T23:03:37.072Z,23.41
2018-04-19T23:05:42.768Z,23.70
2018-04-19T23:07:47.535Z,23.55
2018-04-19T23:09:52.009Z,23.31
2018-04-19T23:11:55.857Z,22.97
2018-04-19T23:13:59.755Z,23.43
2018-04-19T23:16:04.478Z,22.93
2018-04-19T23:18:09.270Z,23.11
2018-04-19T23:20:14.252Z,23.21
2018-04-19T23:22:23.434Z,23.04
2018-04-19T23:24:27.681Z,23.22
2018-04-19T23:26:35.261Z,23.33
2018-04-19T23:28:39.409Z,23.06
2018-04-19T23:30:43.638Z,22.86
2018-04-19T23:32:48.010Z,23.14
2018-04-19T23:34:52.117Z,23.26
2018-04-19T23:36:56.275Z,23.39
2018-04-19T23:39:00.179Z,23.27
2018-04-19T23:41:05.187Z,23.41
2018-04-19T23:43:10.066Z,23.48
2018-04-19T23:45:15.937Z,23.50
2018-04-19T23:47:23.314Z,23.39
2018-04-19T23:49:27.675Z,23.45
2018-04-19T23:53:51.959Z,23.04
2018-04-19T23:55:56.013Z,22.95
2018-04-19T23:58:00.079Z,23.15
